sensor_id;sensor_type;location;lat;lon;timestamp;temperature;humidity
45643;DHT22;31358;46.008;11.144;2023-04-19T00:01:24;13.80;91.20
45643;DHT22;31358;46.008;11.144;2023-04-19T00:03:49;13.80;91.30
45643;DHT22;31358;46.008;11.144;2023-04-19T00:06:15;13.90;91.30
45643;DHT22;31358;46.008;11.144;2023-04-19T00:08:42;13.90;91.30
45643;DHT22;31358;46.008;11.144;2023-04-19T00:11:08;13.90;91.30
45643;DHT22;31358;46.008;11.144;2023-04-19T00:13:34;13.80;91.30
45643;DHT22;31358;46.008;11.144;2023-04-19T00:16:00;13.80;91.40
45643;DHT22;31358;46.008;11.144;2023-04-19T00:18:25;13.70;91.60
45643;DHT22;31358;46.008;11.144;2023-04-19T00:20:51;13.70;91.60
45643;DHT22;31358;46.008;11.144;2023-04-19T00:23:17;13.80;91.50
45643;DHT22;31358;46.008;11.144;2023-04-19T00:25:45;13.80;91.10
45643;DHT22;31358;46.008;11.144;2023-04-19T00:28:11;13.90;90.70
45643;DHT22;31358;46.008;11.144;2023-04-19T00:30:36;13.70;91.20
45643;DHT22;31358;46.008;11.144;2023-04-19T00:33:02;13.80;91.00
45643;DHT22;31358;46.008;11.144;2023-04-19T00:35:28;13.70;91.50
45643;DHT22;31358;46.008;11.144;2023-04-19T00:37:53;13.60;91.80
45643;DHT22;31358;46.008;11.144;2023-04-19T00:40:19;13.60;91.70
45643;DHT22;31358;46.008;11.144;2023-04-19T00:42:45;13.60;91.60
45643;DHT22;31358;46.008;11.144;2023-04-19T00:45:11;13.70;91.50
45643;DHT22;31358;46.008;11.144;2023-04-19T00:47:37;13.50;92.00
45643;DHT22;31358;46.008;11.144;2023-04-19T00:50:03;13.40;92.40
45643;DHT22;31358;46.008;11.144;2023-04-19T00:52:31;13.50;91.90
45643;DHT22;31358;46.008;11.144;2023-04-19T00:54:58;13.70;91.10
45643;DHT22;31358;46.008;11.144;2023-04-19T00:57:24;13.60;91.60
45643;DHT22;31358;46.008;11.144;2023-04-19T00:59:50;13.60;91.80
45643;DHT22;31358;46.008;11.144;2023-04-19T01:02:16;13.50;92.00
45643;DHT22;31358;46.008;11.144;2023-04-19T01:04:42;13.50;92.10
45643;DHT22;31358;46.008;11.144;2023-04-19T01:07:08;13.50;92.10
45643;DHT22;31358;46.008;11.144;2023-04-19T01:09:34;13.50;92.30
45643;DHT22;31358;46.008;11.144;2023-04-19T01:12:00;13.50;92.20
45643;DHT22;31358;46.008;11.144;2023-04-19T01:14:28;13.40;92.30
45643;DHT22;31358;46.008;11.144;2023-04-19T01:16:56;13.40;92.40
45643;DHT22;31358;46.008;11.144;2023-04-19T01:19:21;13.30;92.30
45643;DHT22;31358;46.008;11.144;2023-04-19T01:21:47;13.20;92.20
45643;DHT22;31358;46.008;11.144;2023-04-19T01:24:13;13.20;92.70
45643;DHT22;31358;46.008;11.144;2023-04-19T01:26:38;13.20;92.30
45643;DHT22;31358;46.008;11.144;2023-04-19T01:29:04;13.00;92.70
45643;DHT22;31358;46.008;11.144;2023-04-19T01:31:30;13.10;92.50
45643;DHT22;31358;46.008;11.144;2023-04-19T01:33:56;13.30;92.30
45643;DHT22;31358;46.008;11.144;2023-04-19T01:36:21;13.40;92.00
45643;DHT22;31358;46.008;11.144;2023-04-19T01:38:47;13.30;92.30
45643;DHT22;31358;46.008;11.144;2023-04-19T01:41:13;13.30;92.20
45643;DHT22;31358;46.008;11.144;2023-04-19T01:43:39;13.30;92.10
45643;DHT22;31358;46.008;11.144;2023-04-19T01:46:05;13.30;92.10
45643;DHT22;31358;46.008;11.144;2023-04-19T01:48:30;13.30;92.20
45643;DHT22;31358;46.008;11.144;2023-04-19T01:50:56;13.30;92.20
45643;DHT22;31358;46.008;11.144;2023-04-19T01:53:22;13.30;92.30
45643;DHT22;31358;46.008;11.144;2023-04-19T01:55:48;13.30;92.20
45643;DHT22;31358;46.008;11.144;2023-04-19T01:58:14;13.30;92.10
45643;DHT22;31358;46.008;11.144;2023-04-19T02:00:40;13.30;92.00
45643;DHT22;31358;46.008;11.144;2023-04-19T02:03:05;13.20;92.50
45643;DHT22;31358;46.008;11.144;2023-04-19T02:05:31;13.00;93.00
45643;DHT22;31358;46.008;11.144;2023-04-19T02:07:57;12.90;93.40
45643;DHT22;31358;46.008;11.144;2023-04-19T02:10:22;13.00;93.20
45643;DHT22;31358;46.008;11.144;2023-04-19T02:12:48;13.00;93.40
45643;DHT22;31358;46.008;11.144;2023-04-19T02:15:14;12.90;93.50
45643;DHT22;31358;46.008;11.144;2023-04-19T02:17:39;13.00;93.50
45643;DHT22;31358;46.008;11.144;2023-04-19T02:20:06;12.90;93.80
45643;DHT22;31358;46.008;11.144;2023-04-19T02:22:35;12.90;94.20
45643;DHT22;31358;46.008;11.144;2023-04-19T02:25:01;13.10;93.60
45643;DHT22;31358;46.008;11.144;2023-04-19T02:27:27;13.20;93.60
45643;DHT22;31358;46.008;11.144;2023-04-19T02:29:53;13.20;93.60
45643;DHT22;31358;46.008;11.144;2023-04-19T02:32:19;13.30;93.40
45643;DHT22;31358;46.008;11.144;2023-04-19T02:34:44;13.20;93.40
45643;DHT22;31358;46.008;11.144;2023-04-19T02:37:10;13.30;93.40
45643;DHT22;31358;46.008;11.144;2023-04-19T02:39:36;13.20;93.90
45643;DHT22;31358;46.008;11.144;2023-04-19T02:42:01;13.00;94.70
45643;DHT22;31358;46.008;11.144;2023-04-19T02:44:27;12.80;94.00
45643;DHT22;31358;46.008;11.144;2023-04-19T02:46:53;12.90;94.60
45643;DHT22;31358;46.008;11.144;2023-04-19T02:49:20;12.80;95.60
45643;DHT22;31358;46.008;11.144;2023-04-19T02:51:46;12.90;95.60
45643;DHT22;31358;46.008;11.144;2023-04-19T02:54:12;12.90;95.70
45643;DHT22;31358;46.008;11.144;2023-04-19T02:56:38;12.90;95.40
45643;DHT22;31358;46.008;11.144;2023-04-19T02:59:04;12.80;95.10
45643;DHT22;31358;46.008;11.144;2023-04-19T03:01:30;12.80;95.50
45643;DHT22;31358;46.008;11.144;2023-04-19T03:03:56;12.70;95.70
45643;DHT22;31358;46.008;11.144;2023-04-19T03:06:22;12.70;95.20
45643;DHT22;31358;46.008;11.144;2023-04-19T03:08:48;12.60;95.10
45643;DHT22;31358;46.008;11.144;2023-04-19T03:11:15;12.60;94.90
45643;DHT22;31358;46.008;11.144;2023-04-19T03:13:41;12.50;95.20
45643;DHT22;31358;46.008;11.144;2023-04-19T03:16:07;12.30;95.40
45643;DHT22;31358;46.008;11.144;2023-04-19T03:18:33;12.30;96.30
45643;DHT22;31358;46.008;11.144;2023-04-19T03:20:59;12.10;97.00
45643;DHT22;31358;46.008;11.144;2023-04-19T03:23:25;11.90;97.40
45643;DHT22;31358;46.008;11.144;2023-04-19T03:25:52;11.80;97.50
45643;DHT22;31358;46.008;11.144;2023-04-19T03:28:18;11.70;97.70
45643;DHT22;31358;46.008;11.144;2023-04-19T03:30:43;11.60;98.20
45643;DHT22;31358;46.008;11.144;2023-04-19T03:33:09;11.40;98.60
45643;DHT22;31358;46.008;11.144;2023-04-19T03:35:35;11.20;98.90
45643;DHT22;31358;46.008;11.144;2023-04-19T03:38:00;11.10;99.60
45643;DHT22;31358;46.008;11.144;2023-04-19T03:40:26;10.90;99.90
45643;DHT22;31358;46.008;11.144;2023-04-19T03:42:52;10.90;99.90
45643;DHT22;31358;46.008;11.144;2023-04-19T03:45:17;10.80;99.90
45643;DHT22;31358;46.008;11.144;2023-04-19T03:47:43;10.80;99.90
45643;DHT22;31358;46.008;11.144;2023-04-19T03:50:09;10.60;99.90
45643;DHT22;31358;46.008;11.144;2023-04-19T03:52:35;10.70;99.90
45643;DHT22;31358;46.008;11.144;2023-04-19T03:55:00;10.90;99.90
45643;DHT22;31358;46.008;11.144;2023-04-19T03:57:26;11.00;99.70
45643;DHT22;31358;46.008;11.144;2023-04-19T03:59:52;10.90;99.80
45643;DHT22;31358;46.008;11.144;2023-04-19T04:02:17;10.90;99.80
45643;DHT22;31358;46.008;11.144;2023-04-19T04:04:43;11.10;99.50
45643;DHT22;31358;46.008;11.144;2023-04-19T04:07:08;11.10;99.30
45643;DHT22;31358;46.008;11.144;2023-04-19T04:09:34;11.20;99.10
45643;DHT22;31358;46.008;11.144;2023-04-19T04:12:00;11.20;99.20
45643;DHT22;31358;46.008;11.144;2023-04-19T04:14:26;11.20;99.00
45643;DHT22;31358;46.008;11.144;2023-04-19T04:16:51;11.30;98.80
45643;DHT22;31358;46.008;11.144;2023-04-19T04:19:17;11.40;98.60
45643;DHT22;31358;46.008;11.144;2023-04-19T04:21:43;11.30;98.70
45643;DHT22;31358;46.008;11.144;2023-04-19T04:24:09;11.30;98.90
45643;DHT22;31358;46.008;11.144;2023-04-19T04:26:35;11.40;98.60
45643;DHT22;31358;46.008;11.144;2023-04-19T04:29:04;11.40;98.50
45643;DHT22;31358;46.008;11.144;2023-04-19T04:31:29;11.40;98.70
45643;DHT22;31358;46.008;11.144;2023-04-19T04:33:56;11.30;99.10
45643;DHT22;31358;46.008;11.144;2023-04-19T04:36:22;11.20;99.20
45643;DHT22;31358;46.008;11.144;2023-04-19T04:38:48;11.20;99.20
45643;DHT22;31358;46.008;11.144;2023-04-19T04:41:13;11.10;99.50
45643;DHT22;31358;46.008;11.144;2023-04-19T04:43:39;11.20;98.60
45643;DHT22;31358;46.008;11.144;2023-04-19T04:46:05;11.30;98.80
45643;DHT22;31358;46.008;11.144;2023-04-19T04:48:30;11.30;99.10
45643;DHT22;31358;46.008;11.144;2023-04-19T04:50:57;11.30;99.00
45643;DHT22;31358;46.008;11.144;2023-04-19T04:53:25;11.30;99.50
45643;DHT22;31358;46.008;11.144;2023-04-19T04:55:52;11.40;98.20
45643;DHT22;31358;46.008;11.144;2023-04-19T04:58:18;11.60;97.40
45643;DHT22;31358;46.008;11.144;2023-04-19T05:00:44;11.80;97.40
45643;DHT22;31358;46.008;11.144;2023-04-19T05:03:10;11.80;97.70
45643;DHT22;31358;46.008;11.144;2023-04-19T05:05:35;11.80;97.70
45643;DHT22;31358;46.008;11.144;2023-04-19T05:08:02;11.90;97.80
45643;DHT22;31358;46.008;11.144;2023-04-19T05:10:27;11.90;97.60
45643;DHT22;31358;46.008;11.144;2023-04-19T05:12:53;12.00;97.70
45643;DHT22;31358;46.008;11.144;2023-04-19T05:15:19;11.90;97.50
45643;DHT22;31358;46.008;11.144;2023-04-19T05:17:44;12.00;96.60
45643;DHT22;31358;46.008;11.144;2023-04-19T05:20:10;12.00;97.80
45643;DHT22;31358;46.008;11.144;2023-04-19T05:22:37;12.00;97.50
45643;DHT22;31358;46.008;11.144;2023-04-19T05:25:03;12.10;96.90
45643;DHT22;31358;46.008;11.144;2023-04-19T05:27:29;12.10;95.80
45643;DHT22;31358;46.008;11.144;2023-04-19T05:29:54;12.20;96.60
45643;DHT22;31358;46.008;11.144;2023-04-19T05:32:20;12.20;97.00
45643;DHT22;31358;46.008;11.144;2023-04-19T05:34:45;12.20;97.10
45643;DHT22;31358;46.008;11.144;2023-04-19T05:37:11;12.10;95.60
45643;DHT22;31358;46.008;11.144;2023-04-19T05:39:37;12.20;95.20
45643;DHT22;31358;46.008;11.144;2023-04-19T05:42:02;12.20;95.40
45643;DHT22;31358;46.008;11.144;2023-04-19T05:44:28;12.20;95.60
45643;DHT22;31358;46.008;11.144;2023-04-19T05:46:54;12.30;94.50
45643;DHT22;31358;46.008;11.144;2023-04-19T05:49:19;12.40;94.60
45643;DHT22;31358;46.008;11.144;2023-04-19T05:51:45;12.50;94.70
45643;DHT22;31358;46.008;11.144;2023-04-19T05:54:11;12.50;94.20
45643;DHT22;31358;46.008;11.144;2023-04-19T05:56:38;12.40;94.60
45643;DHT22;31358;46.008;11.144;2023-04-19T05:59:05;12.50;95.00
45643;DHT22;31358;46.008;11.144;2023-04-19T06:01:31;12.60;95.40
45643;DHT22;31358;46.008;11.144;2023-04-19T06:03:57;12.60;94.40
45643;DHT22;31358;46.008;11.144;2023-04-19T06:06:22;12.50;93.70
45643;DHT22;31358;46.008;11.144;2023-04-19T06:08:49;12.60;93.80
45643;DHT22;31358;46.008;11.144;2023-04-19T06:11:15;12.70;94.20
45643;DHT22;31358;46.008;11.144;2023-04-19T06:13:41;12.80;94.20
45643;DHT22;31358;46.008;11.144;2023-04-19T06:16:08;13.00;93.80
45643;DHT22;31358;46.008;11.144;2023-04-19T06:18:33;13.10;93.90
45643;DHT22;31358;46.008;11.144;2023-04-19T06:20:59;12.90;95.00
45643;DHT22;31358;46.008;11.144;2023-04-19T06:23:25;12.80;95.80
45643;DHT22;31358;46.008;11.144;2023-04-19T06:25:51;13.10;94.60
45643;DHT22;31358;46.008;11.144;2023-04-19T06:28:17;13.50;93.60
45643;DHT22;31358;46.008;11.144;2023-04-19T06:30:43;13.60;94.90
45643;DHT22;31358;46.008;11.144;2023-04-19T06:33:08;13.40;94.20
45643;DHT22;31358;46.008;11.144;2023-04-19T06:35:34;13.30;93.70
45643;DHT22;31358;46.008;11.144;2023-04-19T06:38:00;13.50;93.30
45643;DHT22;31358;46.008;11.144;2023-04-19T06:40:26;13.50;93.20
45643;DHT22;31358;46.008;11.144;2023-04-19T06:42:53;13.50;92.50
45643;DHT22;31358;46.008;11.144;2023-04-19T06:45:18;13.40;92.40
45643;DHT22;31358;46.008;11.144;2023-04-19T06:47:44;13.40;92.50
45643;DHT22;31358;46.008;11.144;2023-04-19T06:50:10;13.50;92.70
45643;DHT22;31358;46.008;11.144;2023-04-19T06:52:36;13.60;93.70
45643;DHT22;31358;46.008;11.144;2023-04-19T06:55:02;13.50;93.80
45643;DHT22;31358;46.008;11.144;2023-04-19T06:57:28;13.40;92.70
45643;DHT22;31358;46.008;11.144;2023-04-19T06:59:54;13.30;92.60
45643;DHT22;31358;46.008;11.144;2023-04-19T07:02:20;13.40;93.70
45643;DHT22;31358;46.008;11.144;2023-04-19T07:04:46;13.40;94.00
45643;DHT22;31358;46.008;11.144;2023-04-19T07:07:12;13.40;92.90
45643;DHT22;31358;46.008;11.144;2023-04-19T07:09:38;13.60;92.70
45643;DHT22;31358;46.008;11.144;2023-04-19T07:12:05;13.70;91.90
45643;DHT22;31358;46.008;11.144;2023-04-19T07:14:31;14.00;91.70
45643;DHT22;31358;46.008;11.144;2023-04-19T07:16:57;14.80;90.50
45643;DHT22;31358;46.008;11.144;2023-04-19T07:19:22;15.60;89.50
45643;DHT22;31358;46.008;11.144;2023-04-19T07:21:50;15.90;88.40
45643;DHT22;31358;46.008;11.144;2023-04-19T07:24:16;14.80;90.10
45643;DHT22;31358;46.008;11.144;2023-04-19T07:26:42;14.30;90.20
45643;DHT22;31358;46.008;11.144;2023-04-19T07:29:08;14.10;90.20
45643;DHT22;31358;46.008;11.144;2023-04-19T07:31:33;14.10;89.80
45643;DHT22;31358;46.008;11.144;2023-04-19T07:34:00;14.10;90.90
45643;DHT22;31358;46.008;11.144;2023-04-19T07:36:25;14.00;90.90
45643;DHT22;31358;46.008;11.144;2023-04-19T07:38:51;14.40;91.10
45643;DHT22;31358;46.008;11.144;2023-04-19T07:41:16;14.90;90.50
45643;DHT22;31358;46.008;11.144;2023-04-19T07:43:42;14.80;90.20
45643;DHT22;31358;46.008;11.144;2023-04-19T07:46:09;14.70;90.50
45643;DHT22;31358;46.008;11.144;2023-04-19T07:48:35;14.70;91.00
45643;DHT22;31358;46.008;11.144;2023-04-19T07:51:11;14.50;90.80
45643;DHT22;31358;46.008;11.144;2023-04-19T07:53:38;14.50;91.60
45643;DHT22;31358;46.008;11.144;2023-04-19T07:56:05;14.60;91.10
45643;DHT22;31358;46.008;11.144;2023-04-19T07:58:31;14.60;90.90
45643;DHT22;31358;46.008;11.144;2023-04-19T08:00:57;14.50;90.80
45643;DHT22;31358;46.008;11.144;2023-04-19T08:03:23;14.40;91.10
45643;DHT22;31358;46.008;11.144;2023-04-19T08:05:49;14.50;90.80
45643;DHT22;31358;46.008;11.144;2023-04-19T08:08:15;14.50;91.00
45643;DHT22;31358;46.008;11.144;2023-04-19T08:10:42;14.50;90.90
45643;DHT22;31358;46.008;11.144;2023-04-19T08:13:08;14.50;91.10
45643;DHT22;31358;46.008;11.144;2023-04-19T08:15:34;14.60;90.80
45643;DHT22;31358;46.008;11.144;2023-04-19T08:18:00;14.70;90.00
45643;DHT22;31358;46.008;11.144;2023-04-19T08:20:26;14.80;90.50
45643;DHT22;31358;46.008;11.144;2023-04-19T08:22:52;14.90;90.80
45643;DHT22;31358;46.008;11.144;2023-04-19T08:25:18;14.90;90.30
45643;DHT22;31358;46.008;11.144;2023-04-19T08:27:44;15.00;90.50
45643;DHT22;31358;46.008;11.144;2023-04-19T08:30:10;15.10;90.50
45643;DHT22;31358;46.008;11.144;2023-04-19T08:32:36;15.10;90.30
45643;DHT22;31358;46.008;11.144;2023-04-19T08:35:01;15.10;90.30
45643;DHT22;31358;46.008;11.144;2023-04-19T08:37:28;15.20;90.20
45643;DHT22;31358;46.008;11.144;2023-04-19T08:39:54;15.30;89.70
45643;DHT22;31358;46.008;11.144;2023-04-19T08:42:19;15.50;90.50
45643;DHT22;31358;46.008;11.144;2023-04-19T08:44:46;16.10;90.40
45643;DHT22;31358;46.008;11.144;2023-04-19T08:47:12;16.00;89.00
45643;DHT22;31358;46.008;11.144;2023-04-19T08:49:40;15.90;88.60
45643;DHT22;31358;46.008;11.144;2023-04-19T08:52:09;15.70;90.20
45643;DHT22;31358;46.008;11.144;2023-04-19T08:54:37;15.60;90.50
45643;DHT22;31358;46.008;11.144;2023-04-19T08:57:04;15.80;90.40
45643;DHT22;31358;46.008;11.144;2023-04-19T08:59:30;15.80;90.30
45643;DHT22;31358;46.008;11.144;2023-04-19T09:02:00;16.00;90.10
45643;DHT22;31358;46.008;11.144;2023-04-19T09:04:25;16.10;89.90
45643;DHT22;31358;46.008;11.144;2023-04-19T09:06:51;17.40;89.10
45643;DHT22;31358;46.008;11.144;2023-04-19T09:09:20;19.30;85.40
45643;DHT22;31358;46.008;11.144;2023-04-19T09:11:45;18.90;84.20
45643;DHT22;31358;46.008;11.144;2023-04-19T09:14:13;19.30;85.70
45643;DHT22;31358;46.008;11.144;2023-04-19T09:16:39;18.20;85.50
45643;DHT22;31358;46.008;11.144;2023-04-19T09:19:06;17.60;88.50
45643;DHT22;31358;46.008;11.144;2023-04-19T09:21:33;17.90;88.30
45643;DHT22;31358;46.008;11.144;2023-04-19T09:24:00;17.80;89.70
45643;DHT22;31358;46.008;11.144;2023-04-19T09:26:26;17.30;88.10
45643;DHT22;31358;46.008;11.144;2023-04-19T09:29:04;17.40;87.00
45643;DHT22;31358;46.008;11.144;2023-04-19T09:31:32;17.20;87.40
45643;DHT22;31358;46.008;11.144;2023-04-19T09:34:12;17.30;87.10
45643;DHT22;31358;46.008;11.144;2023-04-19T09:36:38;17.20;85.40
45643;DHT22;31358;46.008;11.144;2023-04-19T09:39:04;17.30;85.70
45643;DHT22;31358;46.008;11.144;2023-04-19T09:41:30;17.60;85.80
45643;DHT22;31358;46.008;11.144;2023-04-19T09:44:11;17.60;86.00
45643;DHT22;31358;46.008;11.144;2023-04-19T09:46:40;17.90;85.70
45643;DHT22;31358;46.008;11.144;2023-04-19T09:51:42;17.70;86.00
45643;DHT22;31358;46.008;11.144;2023-04-19T09:54:09;17.70;86.00
45643;DHT22;31358;46.008;11.144;2023-04-19T09:56:36;17.60;85.40
45643;DHT22;31358;46.008;11.144;2023-04-19T09:59:02;17.70;85.60
45643;DHT22;31358;46.008;11.144;2023-04-19T10:01:33;17.30;85.50
45643;DHT22;31358;46.008;11.144;2023-04-19T10:03:59;17.40;87.80
45643;DHT22;31358;46.008;11.144;2023-04-19T10:06:27;17.80;87.10
45643;DHT22;31358;46.008;11.144;2023-04-19T10:08:53;18.20;86.80
45643;DHT22;31358;46.008;11.144;2023-04-19T10:11:20;17.90;86.60
45643;DHT22;31358;46.008;11.144;2023-04-19T10:13:47;17.80;87.80
45643;DHT22;31358;46.008;11.144;2023-04-19T10:16:13;17.60;86.60
45643;DHT22;31358;46.008;11.144;2023-04-19T10:18:40;17.70;87.00
45643;DHT22;31358;46.008;11.144;2023-04-19T10:21:07;17.80;88.10
45643;DHT22;31358;46.008;11.144;2023-04-19T10:23:36;17.80;88.80
45643;DHT22;31358;46.008;11.144;2023-04-19T10:26:02;18.00;89.20
45643;DHT22;31358;46.008;11.144;2023-04-19T10:28:28;18.10;88.00
45643;DHT22;31358;46.008;11.144;2023-04-19T10:31:04;18.50;86.90
45643;DHT22;31358;46.008;11.144;2023-04-19T10:33:35;18.40;86.70
45643;DHT22;31358;46.008;11.144;2023-04-19T10:36:01;18.40;85.40
45643;DHT22;31358;46.008;11.144;2023-04-19T10:38:40;18.60;86.20
45643;DHT22;31358;46.008;11.144;2023-04-19T10:41:10;18.90;84.60
45643;DHT22;31358;46.008;11.144;2023-04-19T10:44:08;18.80;83.40
45643;DHT22;31358;46.008;11.144;2023-04-19T10:49:01;18.40;84.00
45643;DHT22;31358;46.008;11.144;2023-04-19T10:51:28;18.20;85.40
45643;DHT22;31358;46.008;11.144;2023-04-19T10:53:58;18.20;86.10
45643;DHT22;31358;46.008;11.144;2023-04-19T11:09:37;19.20;84.90
45643;DHT22;31358;46.008;11.144;2023-04-19T11:12:14;19.60;85.30
45643;DHT22;31358;46.008;11.144;2023-04-19T11:22:23;18.90;81.50
45643;DHT22;31358;46.008;11.144;2023-04-19T11:24:48;18.50;80.60
45643;DHT22;31358;46.008;11.144;2023-04-19T11:27:14;18.70;81.50
45643;DHT22;31358;46.008;11.144;2023-04-19T11:29:40;19.10;83.70
45643;DHT22;31358;46.008;11.144;2023-04-19T11:32:05;19.10;81.60
45643;DHT22;31358;46.008;11.144;2023-04-19T11:34:39;19.20;81.50
45643;DHT22;31358;46.008;11.144;2023-04-19T11:37:05;19.40;80.70
45643;DHT22;31358;46.008;11.144;2023-04-19T11:39:30;19.60;81.10
45643;DHT22;31358;46.008;11.144;2023-04-19T11:41:56;19.60;80.50
45643;DHT22;31358;46.008;11.144;2023-04-19T11:44:23;19.70;82.30
45643;DHT22;31358;46.008;11.144;2023-04-19T11:46:59;19.70;80.60
45643;DHT22;31358;46.008;11.144;2023-04-19T11:49:27;19.70;79.60
45643;DHT22;31358;46.008;11.144;2023-04-19T11:52:00;19.50;80.70
45643;DHT22;31358;46.008;11.144;2023-04-19T11:54:26;19.30;80.00
45643;DHT22;31358;46.008;11.144;2023-04-19T11:57:03;19.00;81.40
45643;DHT22;31358;46.008;11.144;2023-04-19T11:59:30;19.00;79.00
45643;DHT22;31358;46.008;11.144;2023-04-19T12:01:56;19.00;80.70
45643;DHT22;31358;46.008;11.144;2023-04-19T12:04:28;19.20;82.50
45643;DHT22;31358;46.008;11.144;2023-04-19T12:06:58;19.10;81.60
45643;DHT22;31358;46.008;11.144;2023-04-19T12:09:24;19.20;81.60
45643;DHT22;31358;46.008;11.144;2023-04-19T12:11:50;19.10;82.30
45643;DHT22;31358;46.008;11.144;2023-04-19T12:14:18;19.20;82.90
45643;DHT22;31358;46.008;11.144;2023-04-19T12:16:45;19.30;83.00
45643;DHT22;31358;46.008;11.144;2023-04-19T12:19:16;19.40;82.90
45643;DHT22;31358;46.008;11.144;2023-04-19T12:21:42;19.40;83.00
45643;DHT22;31358;46.008;11.144;2023-04-19T12:24:08;19.20;81.50
45643;DHT22;31358;46.008;11.144;2023-04-19T12:26:35;19.20;82.00
45643;DHT22;31358;46.008;11.144;2023-04-19T12:29:01;19.20;82.20
45643;DHT22;31358;46.008;11.144;2023-04-19T12:31:27;18.90;80.60
45643;DHT22;31358;46.008;11.144;2023-04-19T12:33:56;18.90;80.90
45643;DHT22;31358;46.008;11.144;2023-04-19T12:36:22;18.90;82.90
45643;DHT22;31358;46.008;11.144;2023-04-19T12:38:48;18.80;81.90
45643;DHT22;31358;46.008;11.144;2023-04-19T12:41:13;18.90;82.70
45643;DHT22;31358;46.008;11.144;2023-04-19T12:43:39;18.70;83.30
45643;DHT22;31358;46.008;11.144;2023-04-19T12:46:05;18.80;83.70
45643;DHT22;31358;46.008;11.144;2023-04-19T12:48:31;18.80;83.50
45643;DHT22;31358;46.008;11.144;2023-04-19T12:50:56;18.70;82.30
45643;DHT22;31358;46.008;11.144;2023-04-19T12:53:22;18.80;84.30
45643;DHT22;31358;46.008;11.144;2023-04-19T12:55:49;19.00;83.70
45643;DHT22;31358;46.008;11.144;2023-04-19T12:58:18;19.20;84.10
45643;DHT22;31358;46.008;11.144;2023-04-19T13:00:45;19.10;81.10
45643;DHT22;31358;46.008;11.144;2023-04-19T13:03:12;19.20;84.40
45643;DHT22;31358;46.008;11.144;2023-04-19T13:05:38;19.30;81.80
45643;DHT22;31358;46.008;11.144;2023-04-19T13:08:04;19.40;82.70
45643;DHT22;31358;46.008;11.144;2023-04-19T13:10:30;19.50;79.80
45643;DHT22;31358;46.008;11.144;2023-04-19T13:12:55;19.50;81.30
45643;DHT22;31358;46.008;11.144;2023-04-19T13:15:23;19.40;81.10
45643;DHT22;31358;46.008;11.144;2023-04-19T13:17:49;19.40;81.80
45643;DHT22;31358;46.008;11.144;2023-04-19T13:20:18;19.40;80.90
45643;DHT22;31358;46.008;11.144;2023-04-19T13:22:44;19.40;80.60
45643;DHT22;31358;46.008;11.144;2023-04-19T13:25:10;19.60;78.90
45643;DHT22;31358;46.008;11.144;2023-04-19T13:27:36;19.60;79.50
45643;DHT22;31358;46.008;11.144;2023-04-19T13:30:01;19.60;78.90
45643;DHT22;31358;46.008;11.144;2023-04-19T13:32:28;19.50;79.60
45643;DHT22;31358;46.008;11.144;2023-04-19T13:34:53;19.30;78.20
45643;DHT22;31358;46.008;11.144;2023-04-19T13:37:19;19.20;78.00
45643;DHT22;31358;46.008;11.144;2023-04-19T13:39:44;19.20;80.20
45643;DHT22;31358;46.008;11.144;2023-04-19T13:42:11;19.20;81.40
45643;DHT22;31358;46.008;11.144;2023-04-19T13:44:38;19.40;81.40
45643;DHT22;31358;46.008;11.144;2023-04-19T13:47:03;19.20;79.80
45643;DHT22;31358;46.008;11.144;2023-04-19T13:49:29;19.40;81.70
45643;DHT22;31358;46.008;11.144;2023-04-19T13:51:55;19.50;79.90
45643;DHT22;31358;46.008;11.144;2023-04-19T13:54:20;19.60;80.30
45643;DHT22;31358;46.008;11.144;2023-04-19T13:56:46;19.70;81.30
45643;DHT22;31358;46.008;11.144;2023-04-19T13:59:12;19.50;79.80
45643;DHT22;31358;46.008;11.144;2023-04-19T14:01:38;19.40;81.00
45643;DHT22;31358;46.008;11.144;2023-04-19T14:04:03;19.40;80.60
45643;DHT22;31358;46.008;11.144;2023-04-19T14:06:29;19.50;82.20
45643;DHT22;31358;46.008;11.144;2023-04-19T14:08:55;19.70;80.40
45643;DHT22;31358;46.008;11.144;2023-04-19T14:11:21;19.90;77.60
45643;DHT22;31358;46.008;11.144;2023-04-19T14:13:48;20.00;79.30
45643;DHT22;31358;46.008;11.144;2023-04-19T14:16:13;19.90;78.60
45643;DHT22;31358;46.008;11.144;2023-04-19T14:18:39;19.80;78.10
45643;DHT22;31358;46.008;11.144;2023-04-19T14:21:05;19.70;77.90
45643;DHT22;31358;46.008;11.144;2023-04-19T14:23:32;19.60;78.50
45643;DHT22;31358;46.008;11.144;2023-04-19T14:25:58;19.80;78.80
45643;DHT22;31358;46.008;11.144;2023-04-19T14:28:23;19.80;77.30
45643;DHT22;31358;46.008;11.144;2023-04-19T14:30:49;19.70;76.80
45643;DHT22;31358;46.008;11.144;2023-04-19T14:33:15;19.80;75.20
45643;DHT22;31358;46.008;11.144;2023-04-19T14:35:41;19.90;72.70
45643;DHT22;31358;46.008;11.144;2023-04-19T14:38:07;19.90;73.20
45643;DHT22;31358;46.008;11.144;2023-04-19T14:40:32;19.90;71.70
45643;DHT22;31358;46.008;11.144;2023-04-19T14:42:58;19.70;73.40
45643;DHT22;31358;46.008;11.144;2023-04-19T14:45:24;19.80;77.20
45643;DHT22;31358;46.008;11.144;2023-04-19T14:47:51;19.80;74.30
45643;DHT22;31358;46.008;11.144;2023-04-19T14:50:17;19.80;74.60
45643;DHT22;31358;46.008;11.144;2023-04-19T14:52:43;19.80;74.20
45643;DHT22;31358;46.008;11.144;2023-04-19T14:55:09;19.70;73.10
45643;DHT22;31358;46.008;11.144;2023-04-19T14:57:35;19.80;73.10
45643;DHT22;31358;46.008;11.144;2023-04-19T15:00:01;19.80;72.60
45643;DHT22;31358;46.008;11.144;2023-04-19T15:02:26;19.90;72.50
45643;DHT22;31358;46.008;11.144;2023-04-19T15:04:53;19.80;71.40
45643;DHT22;31358;46.008;11.144;2023-04-19T15:07:19;19.80;71.90
45643;DHT22;31358;46.008;11.144;2023-04-19T15:09:45;19.70;71.60
45643;DHT22;31358;46.008;11.144;2023-04-19T15:12:10;19.60;72.40
45643;DHT22;31358;46.008;11.144;2023-04-19T15:14:37;19.70;73.30
45643;DHT22;31358;46.008;11.144;2023-04-19T15:17:03;19.50;75.50
45643;DHT22;31358;46.008;11.144;2023-04-19T15:19:29;19.40;77.70
45643;DHT22;31358;46.008;11.144;2023-04-19T15:21:55;19.50;78.30
45643;DHT22;31358;46.008;11.144;2023-04-19T15:24:20;19.40;78.90
45643;DHT22;31358;46.008;11.144;2023-04-19T15:26:46;19.50;77.40
45643;DHT22;31358;46.008;11.144;2023-04-19T15:29:12;19.40;78.20
45643;DHT22;31358;46.008;11.144;2023-04-19T15:31:38;19.30;79.00
45643;DHT22;31358;46.008;11.144;2023-04-19T15:34:03;19.30;79.30
45643;DHT22;31358;46.008;11.144;2023-04-19T15:36:29;19.40;79.40